createdAt,value
2022-12-12T00:01:44.983Z,100894.59
2022-12-12T00:04:13.763Z,100948.44
2022-12-12T00:06:42.199Z,100871.22
2022-12-12T00:09:10.726Z,100890.66
2022-12-12T00:11:39.520Z,100893.06
2022-12-12T00:14:09.428Z,100861.09
2022-12-12T00:16:37.960Z,100735.69
2022-12-12T00:19:06.300Z,100876.59
2022-12-12T00:21:34.666Z,100825.25
2022-12-12T00:24:03.014Z,100876.97
2022-12-12T00:26:34.209Z,100897.94
2022-12-12T00:29:04.827Z,100894.38
2022-12-12T00:31:34.713Z,100907.41
2022-12-12T00:34:05.149Z,100881.84
2022-12-12T00:36:33.602Z,100863.69
2022-12-12T00:39:02.081Z,100862.75
2022-12-12T00:41:30.499Z,100897.50
2022-12-12T00:43:58.811Z,100818.59
2022-12-12T00:46:27.620Z,100894.69
2022-12-12T00:48:59.230Z,100900.63
2022-12-12T00:51:30.245Z,100865.97
2022-12-12T00:53:59.817Z,100803.91
2022-12-12T00:56:30.052Z,100836.94
2022-12-12T00:58:58.556Z,100892.78
2022-12-12T01:01:30.075Z,100901.59
2022-12-12T01:04:00.188Z,100880.91
2022-12-12T01:06:29.973Z,100899.22
2022-12-12T01:08:58.785Z,100893.25
2022-12-12T01:11:29.057Z,100907.94
2022-12-12T01:13:57.548Z,100882.06
2022-12-12T01:16:26.393Z,100899.59
2022-12-12T01:18:55.020Z,100903.94
2022-12-12T01:21:25.205Z,100909.31
2022-12-12T01:23:53.808Z,100877.69
2022-12-12T01:26:24.634Z,100890.03
2022-12-12T01:28:53.913Z,100899.94
2022-12-12T01:31:22.420Z,100911.47
2022-12-12T01:33:51.079Z,100585.75
2022-12-12T01:36:22.097Z,100914.66
2022-12-12T01:38:57.099Z,100915.31
2022-12-12T01:41:25.613Z,100916.41
2022-12-12T01:43:55.939Z,100917.84
2022-12-12T01:46:43.898Z,100939.44
2022-12-12T01:49:21.879Z,100904.28
2022-12-12T01:51:53.738Z,100999.19
2022-12-12T01:54:27.894Z,100930.75
2022-12-12T01:57:00.185Z,100907.06
2022-12-12T01:59:29.331Z,100907.72
2022-12-12T02:01:58.043Z,100722.88
2022-12-12T02:04:28.951Z,100915.75
2022-12-12T02:06:58.425Z,100942.88
2022-12-12T02:09:28.672Z,100903.53
2022-12-12T02:11:59.093Z,100949.16
2022-12-12T02:14:31.927Z,100953.50
2022-12-12T02:17:21.892Z,100961.84
2022-12-12T02:20:45.552Z,100952.03
2022-12-12T02:23:46.328Z,100890.13
2022-12-12T02:27:03.953Z,100922.75
2022-12-12T02:30:06.116Z,100961.63
2022-12-12T02:33:03.969Z,100957.88
2022-12-12T02:35:44.658Z,100952.13
2022-12-12T02:38:23.673Z,100953.97
2022-12-12T02:41:05.233Z,100958.97
2022-12-12T02:43:40.940Z,100969.09
2022-12-12T02:46:15.363Z,100950.97
2022-12-12T02:48:52.290Z,100934.88
2022-12-12T02:51:22.543Z,100886.94
2022-12-12T02:53:52.606Z,100974.09
2022-12-12T02:56:48.814Z,100950.00
2022-12-12T02:59:23.467Z,100952.22
2022-12-12T03:02:16.656Z,100956.81
2022-12-12T03:05:32.436Z,100952.59
2022-12-12T03:08:13.393Z,100958.06
2022-12-12T03:10:53.695Z,100935.69
2022-12-12T03:13:33.090Z,100966.09
2022-12-12T03:16:14.905Z,100967.94
2022-12-12T03:18:53.432Z,100924.94
2022-12-12T03:21:34.008Z,100964.44
2022-12-12T03:24:05.784Z,100910.97
2022-12-12T03:26:43.375Z,100952.00
2022-12-12T03:29:16.416Z,100967.75
2022-12-12T03:31:50.003Z,100931.69
2022-12-12T03:34:26.866Z,100911.91
2022-12-12T03:37:04.199Z,100961.13
2022-12-12T03:39:40.296Z,100896.78
2022-12-12T03:42:20.535Z,100953.97
2022-12-12T03:44:53.715Z,100890.00
2022-12-12T03:47:26.898Z,100954.34
2022-12-12T03:50:03.420Z,100953.03
2022-12-12T03:52:39.158Z,100953.78
2022-12-12T03:55:14.585Z,100944.53
2022-12-12T03:57:50.872Z,100958.69
2022-12-12T04:00:19.744Z,100876.72
2022-12-12T04:02:55.231Z,100944.38
2022-12-12T04:05:29.340Z,100955.97
2022-12-12T04:08:08.605Z,100627.38
2022-12-12T04:11:03.461Z,100901.09
2022-12-12T04:13:40.111Z,100945.00
2022-12-12T04:16:13.176Z,100827.50
2022-12-12T04:18:55.896Z,100955.03
2022-12-12T04:21:52.355Z,100942.25
2022-12-12T04:24:31.728Z,100941.00
2022-12-12T04:27:07.847Z,100944.56
2022-12-12T04:29:45.024Z,100909.34
2022-12-12T04:32:21.185Z,100919.88
2022-12-12T04:34:56.838Z,100962.44
2022-12-12T04:37:30.339Z,100924.19
2022-12-12T04:40:04.987Z,100988.34
2022-12-12T04:42:38.074Z,100942.97
2022-12-12T04:45:13.487Z,100957.06
2022-12-12T04:47:45.426Z,100947.53
2022-12-12T04:50:15.382Z,100976.84
2022-12-12T04:52:46.536Z,100966.47
2022-12-12T04:55:22.847Z,100910.06
2022-12-12T04:57:54.847Z,100993.47
2022-12-12T05:00:25.879Z,100928.72
2022-12-12T05:03:03.607Z,100947.97
2022-12-12T05:05:40.153Z,100602.81
2022-12-12T05:08:14.754Z,100491.94
2022-12-12T05:10:46.942Z,100871.91
2022-12-12T05:13:18.699Z,100942.22
2022-12-12T05:15:48.677Z,100864.66
2022-12-12T05:18:17.585Z,100977.06
2022-12-12T05:20:48.995Z,100980.25
2022-12-12T05:23:18.089Z,100964.69
2022-12-12T05:25:47.975Z,100921.06
2022-12-12T05:28:16.372Z,100970.88
2022-12-12T05:30:47.796Z,100990.00
2022-12-12T05:33:16.253Z,100983.41
2022-12-12T05:35:44.582Z,101011.78
2022-12-12T05:38:12.984Z,100975.28
2022-12-12T05:40:41.579Z,100964.47
2022-12-12T05:43:11.285Z,100996.75
2022-12-12T05:45:39.984Z,100995.84
2022-12-12T05:48:10.804Z,100998.66
2022-12-12T05:50:39.227Z,100999.75
2022-12-12T05:53:07.569Z,100976.09
2022-12-12T05:55:36.655Z,100994.72
2022-12-12T05:58:05.269Z,101000.50
2022-12-12T06:00:35.185Z,100968.47
2022-12-12T06:03:03.554Z,101006.75
2022-12-12T06:05:32.280Z,101012.06
2022-12-12T06:08:00.720Z,100995.50
2022-12-12T06:10:29.071Z,101012.72
2022-12-12T06:12:57.536Z,100954.47
2022-12-12T06:15:25.976Z,101011.19
2022-12-12T06:17:55.717Z,101010.31
2022-12-12T06:20:24.012Z,101021.31
2022-12-12T06:22:54.009Z,101017.06
2022-12-12T06:25:22.957Z,101019.25
2022-12-12T06:27:51.686Z,101030.28
2022-12-12T06:30:21.086Z,101012.63
2022-12-12T06:32:49.531Z,100914.47
2022-12-12T06:35:22.107Z,100591.72
2022-12-12T06:37:50.520Z,101018.16
2022-12-12T06:40:19.219Z,101031.13
2022-12-12T06:42:48.725Z,100964.88
2022-12-12T06:45:17.933Z,101032.84
2022-12-12T06:47:48.715Z,101037.19
2022-12-12T06:50:23.508Z,101028.34
2022-12-12T06:52:52.385Z,101035.63
2022-12-12T06:55:23.618Z,100971.03
2022-12-12T06:57:52.147Z,100952.00
2022-12-12T07:00:21.910Z,101034.59
2022-12-12T07:02:52.837Z,100975.41
2022-12-12T07:05:25.768Z,100978.97
2022-12-12T07:07:54.254Z,101036.22
2022-12-12T07:10:22.711Z,101037.44
2022-12-12T07:12:56.017Z,101035.72
2022-12-12T07:15:25.903Z,101029.88
2022-12-12T07:17:54.671Z,101042.09
2022-12-12T07:20:23.042Z,100979.88
2022-12-12T07:22:52.792Z,101002.28
2022-12-12T07:25:24.046Z,101055.53
2022-12-12T07:27:52.427Z,101020.91
2022-12-12T07:30:24.055Z,100909.84
2022-12-12T07:32:53.586Z,101060.09
2022-12-12T07:35:21.987Z,100972.91
2022-12-12T07:37:52.493Z,101038.22
2022-12-12T07:40:24.128Z,101045.28
2022-12-12T07:42:54.600Z,101061.53
2022-12-12T07:45:25.708Z,101063.38
2022-12-12T07:47:55.116Z,101059.97
2022-12-12T07:50:24.427Z,101064.81
2022-12-12T07:52:54.228Z,101068.59
2022-12-12T07:55:22.658Z,101053.09
2022-12-12T07:57:51.133Z,101085.91
2022-12-12T08:00:22.577Z,101082.16
2022-12-12T08:02:51.307Z,101082.28
2022-12-12T08:05:19.878Z,101083.44
2022-12-12T08:07:48.569Z,101078.88
2022-12-12T08:10:20.873Z,101023.94
2022-12-12T08:12:49.310Z,101097.66
2022-12-12T08:15:20.549Z,101080.03
2022-12-12T08:17:49.017Z,101059.41
2022-12-12T08:20:20.744Z,101030.06
2022-12-12T08:22:49.791Z,100776.59
2022-12-12T08:25:19.732Z,101068.69
2022-12-12T08:27:48.198Z,101066.31
2022-12-12T08:30:17.312Z,101100.66
2022-12-12T08:32:45.953Z,101091.75
2022-12-12T08:35:14.683Z,101085.50
2022-12-12T08:37:43.261Z,101064.06
2022-12-12T08:40:13.316Z,101099.13
2022-12-12T08:42:43.106Z,101095.78
2022-12-12T08:45:12.604Z,101093.41
2022-12-12T08:47:42.222Z,101099.38
2022-12-12T08:50:12.172Z,101063.66
2022-12-12T08:52:40.560Z,101084.75
2022-12-12T08:55:10.542Z,101108.13
2022-12-12T08:57:39.134Z,101116.59
2022-12-12T09:00:11.315Z,101112.16
2022-12-12T09:02:39.779Z,101102.78
2022-12-12T09:05:09.217Z,101119.41
2022-12-12T09:07:38.060Z,101115.31
2022-12-12T09:10:09.108Z,101026.75
2022-12-12T09:12:41.624Z,101121.59
2022-12-12T09:15:12.648Z,101112.34
2022-12-12T09:17:41.712Z,101098.91
2022-12-12T09:20:11.388Z,101122.00
2022-12-12T09:22:40.282Z,101092.75
2022-12-12T09:25:10.671Z,101113.84
2022-12-12T09:27:39.066Z,101121.50
2022-12-12T09:30:09.010Z,101126.28
2022-12-12T09:32:38.845Z,101095.31
2022-12-12T09:35:08.124Z,101073.88
2022-12-12T09:37:36.500Z,101076.19
2022-12-12T09:40:06.680Z,101121.72
2022-12-12T09:42:36.837Z,101126.63
2022-12-12T09:45:09.240Z,101123.31
2022-12-12T09:47:44.702Z,101095.41
2022-12-12T09:50:20.357Z,101089.09
2022-12-12T09:52:48.963Z,101014.63
2022-12-12T09:55:37.359Z,101118.56
2022-12-12T09:58:19.093Z,101002.91
2022-12-12T10:00:51.309Z,101125.75
2022-12-12T10:03:44.112Z,101124.38
2022-12-12T10:06:36.491Z,101118.19
2022-12-12T10:09:25.654Z,101123.38
2022-12-12T10:11:56.971Z,101150.50
2022-12-12T10:14:34.469Z,101123.25
2022-12-12T10:17:06.025Z,101069.03
2022-12-12T10:19:49.773Z,101100.69
2022-12-12T10:22:29.844Z,101113.16
2022-12-12T10:25:07.750Z,101118.75
2022-12-12T10:27:36.391Z,101105.41
2022-12-12T10:30:18.021Z,101108.94
2022-12-12T10:33:17.427Z,101109.94
2022-12-12T10:35:55.626Z,101113.81
2022-12-12T10:38:41.179Z,101035.91
2022-12-12T10:41:18.016Z,101101.63
2022-12-12T10:43:56.269Z,101108.22
2022-12-12T10:46:31.538Z,101099.19
2022-12-12T10:49:00.210Z,101096.72
2022-12-12T10:51:31.002Z,101102.88
2022-12-12T10:53:59.454Z,101102.09
2022-12-12T10:56:30.271Z,101096.50
2022-12-12T10:59:01.444Z,101022.81
2022-12-12T11:02:07.700Z,101057.56
2022-12-12T11:04:23.464Z,101086.00
2022-12-12T11:06:55.010Z,101099.53
2022-12-12T11:09:26.810Z,101102.31
2022-12-12T11:12:01.278Z,101106.06
2022-12-12T11:14:37.458Z,101105.53
2022-12-12T11:17:22.576Z,101029.97
2022-12-12T11:19:51.499Z,101107.22
2022-12-12T11:22:22.712Z,101015.91
2022-12-12T11:24:52.567Z,101101.09
2022-12-12T11:27:24.761Z,101104.78
2022-12-12T11:29:56.619Z,100933.28
2022-12-12T11:32:29.888Z,101105.88
2022-12-12T11:35:01.148Z,101086.91
2022-12-12T11:37:39.694Z,101084.78
2022-12-12T11:40:25.795Z,101099.34
2022-12-12T11:43:08.456Z,101092.56
2022-12-12T11:45:37.542Z,101076.31
2022-12-12T11:48:44.710Z,101089.84
2022-12-12T11:51:13.446Z,101051.34
2022-12-12T11:53:46.955Z,101044.31
2022-12-12T11:56:34.910Z,101032.72
2022-12-12T11:59:26.386Z,101063.41
2022-12-12T12:02:12.169Z,100988.53
2022-12-12T12:04:53.572Z,101085.06
2022-12-12T12:07:49.541Z,101083.72
2022-12-12T12:10:34.118Z,101083.06
2022-12-12T12:13:20.694Z,101081.81
2022-12-12T12:15:56.978Z,101081.38
2022-12-12T12:18:51.278Z,101072.13
2022-12-12T12:21:34.332Z,101069.44
2022-12-12T12:24:28.267Z,101067.16
2022-12-12T12:27:09.927Z,100999.22
2022-12-12T12:30:07.839Z,100794.25
2022-12-12T12:32:50.125Z,101082.41
2022-12-12T12:35:30.527Z,101081.59
2022-12-12T12:38:15.562Z,101056.22
2022-12-12T12:41:09.467Z,101061.50
2022-12-12T12:43:57.775Z,101075.94
2022-12-12T12:46:40.557Z,101076.53
2022-12-12T12:49:16.462Z,101070.09
2022-12-12T12:51:51.724Z,100764.56
2022-12-12T12:54:25.128Z,101025.31
2022-12-12T12:57:02.267Z,101059.84
2022-12-12T12:59:38.759Z,100987.75
2022-12-12T13:02:25.308Z,101063.06
2022-12-12T13:05:03.657Z,101060.75
2022-12-12T13:07:41.370Z,100977.09
2022-12-12T13:10:20.734Z,101069.78
2022-12-12T13:12:57.435Z,101078.28
2022-12-12T13:15:32.318Z,101069.09
2022-12-12T13:18:04.467Z,101071.94
2022-12-12T13:20:36.806Z,101062.50
2022-12-12T13:23:24.140Z,101054.75
2022-12-12T13:25:58.989Z,101084.81
2022-12-12T13:28:32.698Z,101017.00
2022-12-12T13:31:33.183Z,101050.66
2022-12-12T13:34:07.777Z,101096.50
2022-12-12T13:36:38.822Z,101039.31
2022-12-12T13:39:10.007Z,101041.84
2022-12-12T13:42:01.646Z,101060.56
2022-12-12T13:44:40.559Z,100992.56
2022-12-12T13:48:00.906Z,101056.25
2022-12-12T13:50:29.960Z,101043.09
2022-12-12T13:53:20.809Z,100977.00
2022-12-12T13:55:49.387Z,101058.22
2022-12-12T13:58:37.321Z,101067.09
2022-12-12T14:01:39.207Z,101071.47
2022-12-12T14:04:26.748Z,101059.97
2022-12-12T14:07:05.987Z,101065.28
2022-12-12T14:09:47.911Z,101047.66
2022-12-12T14:12:24.876Z,101046.53
2022-12-12T14:14:59.363Z,101078.53
2022-12-12T14:17:40.048Z,101036.06
2022-12-12T14:20:29.224Z,100997.19
2022-12-12T14:23:25.983Z,101067.81
2022-12-12T14:25:54.837Z,101075.53
2022-12-12T14:28:26.478Z,101085.06
2022-12-12T14:31:11.706Z,100653.06
2022-12-12T14:34:21.916Z,101080.66
2022-12-12T14:37:34.562Z,101088.38
2022-12-12T14:40:12.599Z,101076.06
2022-12-12T14:43:20.402Z,101042.56
2022-12-12T14:45:54.387Z,101081.16
2022-12-12T14:48:26.079Z,101031.69
2022-12-12T14:51:04.699Z,101087.66
2022-12-12T14:53:47.565Z,101085.31
2022-12-12T14:56:18.718Z,101078.16
2022-12-12T14:58:51.673Z,101039.38
2022-12-12T15:01:32.395Z,101090.22
2022-12-12T15:04:01.763Z,101081.78
2022-12-12T15:06:34.348Z,101083.09
2022-12-12T15:09:25.959Z,101079.72
2022-12-12T15:12:04.552Z,101087.13
2022-12-12T15:14:33.253Z,101086.00
2022-12-12T15:17:05.993Z,101085.44
2022-12-12T15:19:40.422Z,101062.16
2022-12-12T15:22:13.099Z,101077.22
2022-12-12T15:24:42.913Z,101088.41
2022-12-12T15:27:24.963Z,101095.00
2022-12-12T15:29:53.650Z,101046.56
2022-12-12T15:32:25.178Z,101086.63
2022-12-12T15:35:05.021Z,101082.50
2022-12-12T15:37:38.592Z,101044.47
2022-12-12T15:40:24.935Z,101088.81
2022-12-12T15:42:57.625Z,100957.66
2022-12-12T15:45:31.938Z,101095.41
2022-12-12T15:48:01.182Z,101103.47
2022-12-12T15:50:36.969Z,101102.00
2022-12-12T15:53:18.599Z,101099.94
2022-12-12T15:56:02.649Z,101048.13
2022-12-12T15:58:34.817Z,101089.66
2022-12-12T16:01:08.529Z,101058.53
2022-12-12T16:03:59.176Z,101093.84
2022-12-12T16:06:30.543Z,101100.00
2022-12-12T16:09:09.576Z,101052.00
2022-12-12T16:11:47.302Z,101099.66
2022-12-12T16:14:40.175Z,101087.19
2022-12-12T16:17:14.467Z,101102.09
2022-12-12T16:19:47.616Z,101105.06
2022-12-12T16:22:34.433Z,101100.56
2022-12-12T16:25:19.227Z,101104.31
2022-12-12T16:27:53.739Z,101064.22
2022-12-12T16:30:22.358Z,101104.09
2022-12-12T16:32:50.806Z,101075.50
2022-12-12T16:35:24.349Z,101061.38
2022-12-12T16:37:55.522Z,101096.25
2022-12-12T16:40:24.702Z,101102.94
2022-12-12T16:43:04.769Z,101102.22
2022-12-12T16:45:36.256Z,101030.56
2022-12-12T16:48:15.429Z,101085.16
2022-12-12T16:50:44.445Z,101065.66
2022-12-12T16:53:13.206Z,101079.31
2022-12-12T16:55:44.313Z,101144.19
2022-12-12T16:58:14.120Z,101088.50
2022-12-12T17:00:43.012Z,101090.69
2022-12-12T17:03:14.757Z,100833.47
2022-12-12T17:05:44.075Z,101091.44
2022-12-12T17:08:13.001Z,101072.44
2022-12-12T17:10:41.649Z,101060.84
2022-12-12T17:13:17.010Z,101092.16
2022-12-12T17:15:45.593Z,101043.84
2022-12-12T17:18:14.789Z,101108.72
2022-12-12T17:20:43.643Z,101071.06
2022-12-12T17:23:28.950Z,101102.09
2022-12-12T17:26:03.450Z,101073.97
2022-12-12T17:28:35.231Z,101070.59
2022-12-12T17:31:05.019Z,101022.22
2022-12-12T17:33:33.433Z,101104.31
2022-12-12T17:36:03.485Z,101107.00
2022-12-12T17:38:31.981Z,101103.06
2022-12-12T17:41:04.908Z,101067.03
2022-12-12T17:43:34.710Z,101102.28
2022-12-12T17:46:05.491Z,101105.88
2022-12-12T17:48:36.749Z,101081.69
2022-12-12T17:51:07.540Z,101101.69
2022-12-12T17:53:38.379Z,101098.69
2022-12-12T17:56:09.314Z,101056.97
2022-12-12T17:58:41.031Z,100768.22
2022-12-12T18:01:15.243Z,101099.28
2022-12-12T18:03:45.501Z,101106.31
2022-12-12T18:06:15.574Z,101107.41
2022-12-12T18:08:45.345Z,101101.41
2022-12-12T18:11:16.936Z,101093.59
2022-12-12T18:13:48.754Z,101088.28
2022-12-12T18:16:18.263Z,100976.31
2022-12-12T18:18:47.056Z,101107.97
2022-12-12T18:21:43.352Z,101100.47
2022-12-12T18:24:09.827Z,101080.06
2022-12-12T18:26:38.395Z,101047.97
2022-12-12T18:29:10.011Z,101107.13
2022-12-12T18:31:38.612Z,101095.75
2022-12-12T18:34:08.200Z,101029.91
2022-12-12T18:36:36.963Z,100983.78
2022-12-12T18:39:07.865Z,101121.53
2022-12-12T18:41:37.547Z,101101.34
2022-12-12T18:44:09.473Z,101108.28
2022-12-12T18:46:42.648Z,101087.63
2022-12-12T18:49:15.155Z,101121.13
2022-12-12T18:51:45.112Z,100901.94
2022-12-12T18:54:16.332Z,101116.09
2022-12-12T18:56:46.030Z,101096.38
2022-12-12T18:59:16.606Z,101080.81
2022-12-12T19:01:45.699Z,101120.19
2022-12-12T19:04:22.455Z,101102.47
2022-12-12T19:06:53.836Z,101115.25
2022-12-12T19:09:23.041Z,101109.19
2022-12-12T19:11:58.211Z,101094.78
2022-12-12T19:17:25.676Z,101028.97
2022-12-12T19:19:55.289Z,101134.63
2022-12-12T19:25:12.392Z,101114.03
2022-12-12T19:27:40.893Z,101101.66
2022-12-12T19:30:15.147Z,101070.97
2022-12-12T19:32:45.782Z,101121.38
2022-12-12T19:35:14.649Z,101104.84
2022-12-12T19:37:43.025Z,101114.56
2022-12-12T19:40:13.740Z,101103.84
2022-12-12T19:42:42.801Z,101028.66
2022-12-12T19:45:12.755Z,101069.59
2022-12-12T19:47:42.229Z,101110.16
2022-12-12T19:50:11.400Z,101085.34
2022-12-12T19:52:40.010Z,101092.44
2022-12-12T19:55:09.730Z,101113.38
2022-12-12T19:57:38.116Z,101109.22
2022-12-12T20:00:09.575Z,101106.75
2022-12-12T20:02:39.277Z,101111.94
2022-12-12T20:05:08.179Z,101104.88
2022-12-12T20:07:36.730Z,101109.44
2022-12-12T20:10:06.548Z,101118.13
2022-12-12T20:12:34.966Z,101065.09
2022-12-12T20:15:03.584Z,101116.13
2022-12-12T20:17:32.096Z,101119.72
2022-12-12T20:20:01.773Z,101115.31
2022-12-12T20:22:30.128Z,101120.56
2022-12-12T20:24:58.475Z,100974.59
2022-12-12T20:27:28.140Z,101102.41
2022-12-12T20:29:56.732Z,101121.28
2022-12-12T20:32:25.094Z,101120.41
2022-12-12T20:34:53.513Z,101083.09
2022-12-12T20:37:23.302Z,101108.47
2022-12-12T20:39:51.818Z,101129.06
2022-12-12T20:42:20.372Z,101125.53
2022-12-12T20:44:50.466Z,101064.31
2022-12-12T20:47:20.688Z,101132.19
2022-12-12T20:49:50.462Z,101132.41
2022-12-12T20:52:20.529Z,101106.63
2022-12-12T20:54:50.515Z,101117.78
2022-12-12T20:57:18.892Z,101142.16
2022-12-12T20:59:49.522Z,101121.97
2022-12-12T21:02:18.046Z,101129.31
2022-12-12T21:04:46.650Z,101099.03
2022-12-12T21:07:15.281Z,100996.69
2022-12-12T21:09:44.223Z,101121.00
2022-12-12T21:12:15.495Z,101125.50
2022-12-12T21:14:43.848Z,101104.41
2022-12-12T21:17:12.269Z,101117.84
2022-12-12T21:19:40.752Z,101120.47
2022-12-12T21:22:09.265Z,101066.63
2022-12-12T21:24:39.493Z,101121.41
2022-12-12T21:27:08.067Z,101118.59
2022-12-12T21:29:37.824Z,101118.84
2022-12-12T21:32:06.789Z,101121.34
2022-12-12T21:34:35.470Z,101123.00
2022-12-12T21:37:03.813Z,101111.53
2022-12-12T21:39:32.176Z,101126.38
2022-12-12T21:42:03.563Z,101093.78
2022-12-12T21:44:31.995Z,101118.63
2022-12-12T21:47:01.922Z,101119.28
2022-12-12T21:49:32.083Z,101127.38
2022-12-12T21:52:02.794Z,101120.41
2022-12-12T21:54:31.979Z,100922.13
2022-12-12T21:57:02.154Z,101123.97
2022-12-12T21:59:31.085Z,101066.03
2022-12-12T22:02:02.122Z,100840.53
2022-12-12T22:04:31.051Z,101087.47
2022-12-12T22:06:59.789Z,101121.19
2022-12-12T22:09:28.491Z,101095.97
2022-12-12T22:12:04.001Z,101125.50
2022-12-12T22:14:34.168Z,101076.28
2022-12-12T22:17:05.018Z,101064.09
2022-12-12T22:19:33.520Z,100970.09
2022-12-12T22:22:02.162Z,101128.41
2022-12-12T22:24:30.614Z,101106.66
2022-12-12T22:26:58.964Z,101079.13
2022-12-12T22:29:27.504Z,101087.97
2022-12-12T22:31:56.044Z,101134.72
2022-12-12T22:34:26.448Z,101104.94
2022-12-12T22:36:55.894Z,101096.53
2022-12-12T22:39:26.758Z,101117.53
2022-12-12T22:41:58.212Z,101125.25
2022-12-12T22:44:29.875Z,101144.78
2022-12-12T22:46:58.970Z,101128.41
2022-12-12T22:49:28.985Z,101053.72
2022-12-12T22:51:58.962Z,101128.91
2022-12-12T22:54:29.205Z,101091.72
2022-12-12T22:56:57.597Z,101080.97
2022-12-12T22:59:26.116Z,101057.03
2022-12-12T23:01:54.614Z,101050.44
2022-12-12T23:04:23.072Z,101120.91
2022-12-12T23:06:52.941Z,101119.72
2022-12-12T23:09:26.201Z,101078.06
2022-12-12T23:11:55.241Z,101117.56
2022-12-12T23:14:26.769Z,101085.22
2022-12-12T23:16:56.282Z,101138.50
2022-12-12T23:19:27.330Z,101084.84
2022-12-12T23:21:57.108Z,101082.44
2022-12-12T23:24:25.718Z,101104.53
2022-12-12T23:26:54.319Z,101110.41
2022-12-12T23:29:23.277Z,101099.97
2022-12-12T23:31:54.524Z,100977.31
2022-12-12T23:34:25.587Z,100892.41
2022-12-12T23:36:56.744Z,101011.66
2022-12-12T23:39:30.601Z,101102.38
2022-12-12T23:41:59.070Z,101051.22
2022-12-12T23:44:27.481Z,101086.72
2022-12-12T23:47:00.527Z,101066.28
2022-12-12T23:49:28.886Z,101097.88
2022-12-12T23:52:00.313Z,101095.31
2022-12-12T23:54:32.627Z,101099.03
2022-12-12T23:57:01.591Z,101095.53
2022-12-12T23:59:30.431Z,101037.91
